createdAt,value
2018-12-17T00:00:33.297Z,51.10
2018-12-17T00:03:02.245Z,73.50
2018-12-17T00:05:31.148Z,48.80
2018-12-17T00:08:00.053Z,102.40
2018-12-17T00:10:28.931Z,55.53
2018-12-17T00:12:57.861Z,93.03
2018-12-17T00:15:26.724Z,61.27
2018-12-17T00:17:55.662Z,64.97
2018-12-17T00:20:24.546Z,62.07
2018-12-17T00:22:53.457Z,59.20
2018-12-17T00:25:22.359Z,67.63
2018-12-17T00:27:51.288Z,58.47
2018-12-17T00:30:20.191Z,79.17
2018-12-17T00:32:49.096Z,53.83
2018-12-17T00:35:18.008Z,64.07
2018-12-17T00:37:46.900Z,76.13
2018-12-17T00:40:15.853Z,71.23
2018-12-17T00:42:44.720Z,87.27
2018-12-17T00:45:13.619Z,73.53
2018-12-17T00:47:42.497Z,69.80
2018-12-17T00:50:11.416Z,60.47
2018-12-17T00:52:40.326Z,67.70
2018-12-17T00:55:09.252Z,67.23
2018-12-17T00:57:38.186Z,53.87
2018-12-17T01:00:09.375Z,93.05
2018-12-17T01:02:38.291Z,60.63
2018-12-17T01:05:07.343Z,79.23
2018-12-17T01:07:36.230Z,56.87
2018-12-17T01:10:07.491Z,64.17
2018-12-17T01:12:36.411Z,94.53
2018-12-17T01:15:06.712Z,62.50
2018-12-17T01:17:35.665Z,49.47
2018-12-17T01:20:05.737Z,59.67
2018-12-17T01:22:34.658Z,50.87
2018-12-17T01:25:03.576Z,61.80
2018-12-17T01:27:32.489Z,48.27
2018-12-17T01:30:01.408Z,58.90
2018-12-17T01:32:30.309Z,193.50
2018-12-17T01:34:59.178Z,91.30
2018-12-17T01:37:28.066Z,47.77
2018-12-17T01:39:56.947Z,53.60
2018-12-17T01:42:25.840Z,71.43
2018-12-17T01:44:54.764Z,52.63
2018-12-17T01:47:23.651Z,140.97
2018-12-17T01:49:52.548Z,51.57
2018-12-17T01:52:21.455Z,84.90
2018-12-17T01:54:50.372Z,229.33
2018-12-17T01:57:19.240Z,90.67
2018-12-17T01:59:48.137Z,70.70
2018-12-17T02:02:17.017Z,53.00
2018-12-17T02:04:45.910Z,50.00
2018-12-17T02:07:15.326Z,74.37
2018-12-17T02:09:43.727Z,46.87
2018-12-17T02:12:12.646Z,44.17
2018-12-17T02:14:41.574Z,95.40
2018-12-17T02:17:10.441Z,44.67
2018-12-17T02:19:39.330Z,58.37
2018-12-17T02:22:08.262Z,57.40
2018-12-17T02:24:37.158Z,38.87
2018-12-17T02:27:06.117Z,59.17
2018-12-17T02:29:35.031Z,46.90
2018-12-17T02:32:03.927Z,52.13
2018-12-17T02:34:32.806Z,60.23
2018-12-17T02:37:01.715Z,43.80
2018-12-17T02:39:30.621Z,50.67
2018-12-17T02:41:59.525Z,36.70
2018-12-17T02:44:28.426Z,40.83
2018-12-17T02:46:57.362Z,41.70
2018-12-17T02:49:26.226Z,91.32
2018-12-17T02:51:55.165Z,57.10
2018-12-17T02:54:24.037Z,85.85
2018-12-17T02:56:52.948Z,45.27
2018-12-17T02:59:21.867Z,43.77
2018-12-17T03:01:50.765Z,45.60
2018-12-17T03:04:19.690Z,52.43
2018-12-17T03:06:48.567Z,43.13
2018-12-17T03:09:17.485Z,43.90
2018-12-17T03:11:46.385Z,44.23
2018-12-17T03:14:15.276Z,45.40
2018-12-17T03:16:44.198Z,61.37
2018-12-17T03:19:13.108Z,55.60
2018-12-17T03:21:42.043Z,91.97
2018-12-17T03:24:10.908Z,54.53
2018-12-17T03:26:39.829Z,72.83
2018-12-17T03:29:08.716Z,104.87
2018-12-17T03:31:37.603Z,80.83
2018-12-17T03:34:06.556Z,58.53
2018-12-17T03:36:35.451Z,65.00
2018-12-17T03:39:05.246Z,103.00
2018-12-17T03:41:34.071Z,111.30
2018-12-17T03:44:03.014Z,84.57
2018-12-17T03:46:31.917Z,64.53
2018-12-17T03:49:00.816Z,54.53
2018-12-17T03:51:29.712Z,62.97
2018-12-17T03:53:58.642Z,53.73
2018-12-17T03:56:27.538Z,90.45
2018-12-17T03:58:59.409Z,94.53
2018-12-17T04:01:25.350Z,54.43
2018-12-17T04:03:54.252Z,64.97
2018-12-17T04:06:23.252Z,63.07
2018-12-17T04:08:52.109Z,61.13
2018-12-17T04:11:20.985Z,79.30
2018-12-17T04:13:49.879Z,64.13
2018-12-17T04:16:18.793Z,67.50
2018-12-17T04:18:47.649Z,79.17
2018-12-17T04:21:16.607Z,71.70
2018-12-17T04:23:45.439Z,67.23
2018-12-17T04:26:14.343Z,76.07
2018-12-17T04:28:43.221Z,69.57
2018-12-17T04:31:12.140Z,71.03
2018-12-17T04:33:41.017Z,71.00
2018-12-17T04:36:09.939Z,69.87
2018-12-17T04:38:38.803Z,68.57
2018-12-17T04:41:07.738Z,62.10
2018-12-17T04:43:36.646Z,62.07
2018-12-17T04:46:07.167Z,72.03
2018-12-17T04:48:34.412Z,60.97
2018-12-17T04:51:03.344Z,57.03
2018-12-17T04:53:32.245Z,63.87
2018-12-17T04:56:01.112Z,57.03
2018-12-17T04:58:30.045Z,57.00
2018-12-17T05:00:58.984Z,58.80
2018-12-17T05:03:27.887Z,49.80
2018-12-17T05:05:56.779Z,43.67
2018-12-17T05:08:25.682Z,50.67
2018-12-17T05:10:54.559Z,48.23
2018-12-17T05:13:23.459Z,45.43
2018-12-17T05:15:52.339Z,44.23
2018-12-17T05:18:21.262Z,47.47
2018-12-17T05:20:50.181Z,42.30
2018-12-17T05:23:19.165Z,42.53
2018-12-17T05:25:48.070Z,39.13
2018-12-17T05:28:16.961Z,38.17
2018-12-17T05:30:45.871Z,38.10
2018-12-17T05:33:14.786Z,33.53
2018-12-17T05:35:43.750Z,31.43
2018-12-17T05:38:12.619Z,33.97
2018-12-17T05:40:41.521Z,33.47
2018-12-17T05:43:10.530Z,30.03
2018-12-17T05:45:39.414Z,31.23
2018-12-17T05:48:08.344Z,32.13
2018-12-17T05:50:37.304Z,30.93
2018-12-17T05:53:06.385Z,35.40
2018-12-17T05:55:35.258Z,29.40
2018-12-17T05:58:04.166Z,30.93
2018-12-17T06:00:33.176Z,30.00
2018-12-17T06:03:02.130Z,26.00
2018-12-17T06:05:31.033Z,30.57
2018-12-17T06:07:59.936Z,28.97
2018-12-17T06:10:28.961Z,32.03
2018-12-17T06:12:57.807Z,27.93
2018-12-17T06:15:26.806Z,26.90
2018-12-17T06:17:55.722Z,25.37
2018-12-17T06:20:24.887Z,29.67
2018-12-17T06:22:53.806Z,27.43
2018-12-17T06:25:22.765Z,28.20
2018-12-17T06:27:51.629Z,26.17
2018-12-17T06:30:20.562Z,28.97
2018-12-17T06:32:49.629Z,27.43
2018-12-17T06:35:18.567Z,28.40
2018-12-17T06:37:47.486Z,27.40
2018-12-17T06:40:16.409Z,28.13
2018-12-17T06:42:45.356Z,26.60
2018-12-17T06:45:14.276Z,25.43
2018-12-17T06:47:43.211Z,27.73
2018-12-17T06:50:12.121Z,27.17
2018-12-17T06:52:41.033Z,28.13
2018-12-17T06:55:09.959Z,27.20
2018-12-17T06:57:38.859Z,27.97
2018-12-17T07:00:08.304Z,25.00
2018-12-17T07:02:37.210Z,31.12
2018-12-17T07:05:06.375Z,27.17
2018-12-17T07:07:35.362Z,25.87
2018-12-17T07:10:04.514Z,22.77
2018-12-17T07:12:33.364Z,31.10
2018-12-17T07:15:02.274Z,26.07
2018-12-17T07:17:31.205Z,25.70
2018-12-17T07:20:00.121Z,26.10
2018-12-17T07:22:29.044Z,27.30
2018-12-17T07:24:57.989Z,28.00
2018-12-17T07:27:26.898Z,28.53
2018-12-17T07:29:55.809Z,36.08
2018-12-17T07:32:24.689Z,35.00
2018-12-17T07:34:53.606Z,28.63
2018-12-17T07:37:22.570Z,26.77
2018-12-17T07:39:51.442Z,28.87
2018-12-17T07:42:20.355Z,29.00
2018-12-17T07:44:49.317Z,26.70
2018-12-17T07:47:18.198Z,22.97
2018-12-17T07:49:47.106Z,26.23
2018-12-17T07:52:16.057Z,25.63
2018-12-17T07:54:44.946Z,37.28
2018-12-17T07:57:13.892Z,33.27
2018-12-17T07:59:42.919Z,30.90
2018-12-17T08:02:11.825Z,31.13
2018-12-17T08:04:40.743Z,35.53
2018-12-17T08:07:09.704Z,30.73
2018-12-17T08:09:38.594Z,28.60
2018-12-17T08:12:07.690Z,33.67
2018-12-17T08:14:36.628Z,31.53
2018-12-17T08:17:05.619Z,30.00
2018-12-17T08:19:34.588Z,28.60
2018-12-17T08:22:03.477Z,35.03
2018-12-17T08:24:32.357Z,31.60
2018-12-17T08:27:01.291Z,28.70
2018-12-17T08:29:31.810Z,31.60
2018-12-17T08:32:00.668Z,38.10
2018-12-17T08:34:29.587Z,39.85
2018-12-17T08:36:58.515Z,33.97
2018-12-17T08:39:27.393Z,32.83
2018-12-17T08:41:56.333Z,34.43
2018-12-17T08:44:25.269Z,35.90
2018-12-17T08:46:54.180Z,34.97
2018-12-17T08:49:23.097Z,31.90
2018-12-17T08:51:53.447Z,40.13
2018-12-17T08:54:22.400Z,33.57
2018-12-17T08:56:51.304Z,33.80
2018-12-17T08:59:20.249Z,37.50
2018-12-17T09:01:49.383Z,35.70
2018-12-17T09:04:18.209Z,44.60
2018-12-17T09:06:47.138Z,42.07
2018-12-17T09:09:16.151Z,38.73
2018-12-17T09:11:45.041Z,43.77
2018-12-17T09:14:13.933Z,44.23
2018-12-17T09:16:42.836Z,40.17
2018-12-17T09:19:11.739Z,44.20
2018-12-17T09:21:40.652Z,38.50
2018-12-17T09:24:09.584Z,45.93
2018-12-17T09:26:38.500Z,44.33
2018-12-17T09:29:07.595Z,41.80
2018-12-17T09:31:36.516Z,43.30
2018-12-17T09:34:05.603Z,42.83
2018-12-17T09:36:38.781Z,40.50
2018-12-17T09:39:08.661Z,39.40
2018-12-17T09:41:37.564Z,39.77
2018-12-17T09:44:06.794Z,42.53
2018-12-17T09:46:35.687Z,40.27
2018-12-17T09:49:04.643Z,40.27
2018-12-17T09:51:33.624Z,39.27
2018-12-17T09:54:02.482Z,45.33
2018-12-17T09:56:31.454Z,46.10
2018-12-17T09:59:00.378Z,46.23
2018-12-17T10:01:29.290Z,48.03
2018-12-17T10:04:00.158Z,44.93
2018-12-17T10:06:29.062Z,49.73
2018-12-17T10:08:57.986Z,45.50
2018-12-17T10:11:26.886Z,48.13
2018-12-17T10:13:55.875Z,51.10
2018-12-17T10:16:28.380Z,46.43
2018-12-17T10:18:55.980Z,49.30
2018-12-17T10:21:24.904Z,55.80
2018-12-17T10:23:53.838Z,53.27
2018-12-17T10:26:22.748Z,45.50
2018-12-17T10:28:51.648Z,48.27
2018-12-17T10:31:20.575Z,48.33
2018-12-17T10:33:49.510Z,50.17
2018-12-17T10:36:18.429Z,44.90
2018-12-17T10:38:47.333Z,48.07
2018-12-17T10:41:16.230Z,50.07
2018-12-17T10:43:45.113Z,45.43
2018-12-17T10:46:14.008Z,49.53
2018-12-17T10:48:42.929Z,44.93
2018-12-17T10:51:11.811Z,44.83
2018-12-17T10:53:40.755Z,52.10
2018-12-17T10:56:09.960Z,47.27
2018-12-17T10:58:38.651Z,43.13
2018-12-17T11:01:25.597Z,43.83
2018-12-17T11:04:01.672Z,41.17
2018-12-17T11:06:30.547Z,37.17
2018-12-17T11:08:59.500Z,44.55
2018-12-17T11:11:28.411Z,38.88
2018-12-17T11:13:57.301Z,32.87
2018-12-17T11:16:26.248Z,31.37
2018-12-17T11:18:55.237Z,35.67
2018-12-17T11:21:24.125Z,30.17
2018-12-17T11:23:53.027Z,31.70
2018-12-17T11:26:21.974Z,35.70
2018-12-17T11:28:51.030Z,35.27
2018-12-17T11:31:19.886Z,33.07
2018-12-17T11:33:48.950Z,35.07
2018-12-17T11:36:17.880Z,33.87
2018-12-17T11:38:46.788Z,26.87
2018-12-17T11:41:15.684Z,26.57
2018-12-17T11:43:44.607Z,28.70
2018-12-17T11:46:13.511Z,31.90
2018-12-17T11:48:42.593Z,30.13
2018-12-17T11:51:11.563Z,23.20
2018-12-17T11:53:40.391Z,24.80
2018-12-17T11:56:09.506Z,24.57
2018-12-17T11:58:38.425Z,21.90
2018-12-17T12:01:07.464Z,19.17
2018-12-17T12:03:40.883Z,21.70
2018-12-17T12:06:13.891Z,17.50
2018-12-17T12:08:38.799Z,22.63
2018-12-17T12:11:07.994Z,25.03
2018-12-17T12:13:36.894Z,20.83
2018-12-17T12:16:05.828Z,16.30
2018-12-17T12:18:34.720Z,16.63
2018-12-17T12:21:03.651Z,18.03
2018-12-17T12:23:32.508Z,18.40
2018-12-17T12:26:01.395Z,19.73
2018-12-17T12:28:30.322Z,21.77
2018-12-17T12:31:00.545Z,19.87
2018-12-17T12:33:28.077Z,17.97
2018-12-17T12:35:56.986Z,19.40
2018-12-17T12:38:25.898Z,21.83
2018-12-17T12:40:54.809Z,20.95
2018-12-17T12:43:23.779Z,17.17
2018-12-17T12:45:52.626Z,21.27
2018-12-17T12:48:21.535Z,20.33
2018-12-17T12:50:50.494Z,17.63
2018-12-17T12:53:19.330Z,24.65
2018-12-17T12:55:48.245Z,19.73
2018-12-17T12:58:17.135Z,21.15
2018-12-17T13:00:46.046Z,20.23
2018-12-17T13:03:14.983Z,15.10
2018-12-17T13:05:43.908Z,15.77
2018-12-17T13:08:12.804Z,17.73
2018-12-17T13:10:41.741Z,18.37
2018-12-17T13:13:10.700Z,19.30
2018-12-17T13:15:39.573Z,20.60
2018-12-17T13:18:08.574Z,18.93
2018-12-17T13:20:37.448Z,17.13
2018-12-17T13:23:06.454Z,15.70
2018-12-17T13:25:44.622Z,18.17
2018-12-17T13:28:13.516Z,17.43
2018-12-17T13:30:42.439Z,14.20
2018-12-17T13:33:11.318Z,11.67
2018-12-17T13:35:40.219Z,16.67
2018-12-17T13:38:09.297Z,13.17
2018-12-17T13:40:38.217Z,13.13
2018-12-17T13:43:07.218Z,20.40
2018-12-17T13:45:36.148Z,14.70
2018-12-17T13:48:05.085Z,12.13
2018-12-17T13:50:34.096Z,16.53
2018-12-17T13:53:20.606Z,15.90
2018-12-17T13:55:49.495Z,14.90
2018-12-17T13:58:18.408Z,13.30
2018-12-17T14:00:47.456Z,14.70
2018-12-17T14:03:16.334Z,13.37
2018-12-17T14:05:45.242Z,15.50
2018-12-17T14:08:14.222Z,13.27
2018-12-17T14:10:50.289Z,16.10
2018-12-17T14:13:19.173Z,15.80
2018-12-17T14:16:12.988Z,13.60
2018-12-17T14:18:59.664Z,17.63
2018-12-17T14:21:46.336Z,14.20
2018-12-17T14:24:15.237Z,15.20
2018-12-17T14:26:44.123Z,13.47
2018-12-17T14:29:13.015Z,14.70
2018-12-17T14:31:41.943Z,13.10
2018-12-17T14:34:10.860Z,10.83
2018-12-17T14:36:39.838Z,11.33
2018-12-17T14:39:09.375Z,12.67
2018-12-17T14:41:38.293Z,11.93
2018-12-17T14:44:38.651Z,10.50
2018-12-17T14:47:07.686Z,13.70
2018-12-17T14:49:36.547Z,13.10
2018-12-17T14:52:05.487Z,11.77
2018-12-17T14:54:34.413Z,13.60
2018-12-17T14:57:03.292Z,16.97
2018-12-17T14:59:32.213Z,13.77
2018-12-17T15:02:01.130Z,10.07
2018-12-17T15:04:30.046Z,22.00
2018-12-17T15:06:58.952Z,12.63
2018-12-17T15:09:27.863Z,10.13
2018-12-17T15:11:56.897Z,11.10
2018-12-17T15:14:25.713Z,10.60
2018-12-17T15:16:54.613Z,9.50
2018-12-17T15:19:23.547Z,22.00
2018-12-17T15:21:52.462Z,13.23
2018-12-17T15:24:21.338Z,8.63
2018-12-17T15:26:50.303Z,14.50
2018-12-17T15:29:19.235Z,10.33
2018-12-17T15:31:48.105Z,15.68
2018-12-17T15:34:17.028Z,12.50
2018-12-17T15:36:45.931Z,10.03
2018-12-17T15:39:14.861Z,12.67
2018-12-17T15:41:43.814Z,10.07
2018-12-17T15:44:12.721Z,15.00
2018-12-17T15:46:41.649Z,11.17
2018-12-17T15:49:10.554Z,11.05
2018-12-17T15:51:39.473Z,18.47
2018-12-17T15:54:08.449Z,12.47
2018-12-17T15:56:37.355Z,11.83
2018-12-17T15:59:06.310Z,13.13
2018-12-17T16:01:35.195Z,9.60
2018-12-17T16:04:04.151Z,15.97
2018-12-17T16:06:33.049Z,13.73
2018-12-17T16:09:01.926Z,11.60
2018-12-17T16:11:30.856Z,10.73
2018-12-17T16:13:59.883Z,15.97
2018-12-17T16:16:28.764Z,17.90
2018-12-17T16:18:57.644Z,13.93
2018-12-17T16:21:26.544Z,9.03
2018-12-17T16:23:55.446Z,12.10
2018-12-17T16:26:24.370Z,7.60
2018-12-17T16:28:53.268Z,10.63
2018-12-17T16:31:22.148Z,11.37
2018-12-17T16:33:51.051Z,11.93
2018-12-17T16:36:19.916Z,9.87
2018-12-17T16:38:48.846Z,10.23
2018-12-17T16:41:17.760Z,10.43
2018-12-17T16:43:46.664Z,13.63
2018-12-17T16:46:15.536Z,9.27
2018-12-17T16:48:44.459Z,14.83
2018-12-17T16:51:13.337Z,11.53
2018-12-17T16:53:42.212Z,12.73
2018-12-17T16:56:11.111Z,11.73
2018-12-17T16:58:39.985Z,13.87
2018-12-17T17:01:08.983Z,11.10
2018-12-17T17:03:37.905Z,11.70
2018-12-17T17:06:06.907Z,19.43
2018-12-17T17:08:35.791Z,18.17
2018-12-17T17:11:04.670Z,21.07
2018-12-17T17:13:33.569Z,9.73
2018-12-17T17:16:02.487Z,14.37
2018-12-17T17:18:31.355Z,14.73
2018-12-17T17:21:00.301Z,14.60
2018-12-17T17:23:29.179Z,15.87
2018-12-17T17:25:58.059Z,19.73
2018-12-17T17:28:26.951Z,19.67
2018-12-17T17:30:55.877Z,17.27
2018-12-17T17:33:24.834Z,19.23
2018-12-17T17:35:53.696Z,12.20
2018-12-17T17:38:22.588Z,14.43
2018-12-17T17:40:51.475Z,14.40
2018-12-17T17:43:20.392Z,17.53
2018-12-17T17:45:49.278Z,15.40
2018-12-17T17:48:18.222Z,19.50
2018-12-17T17:50:47.179Z,16.47
2018-12-17T17:53:16.019Z,22.70
2018-12-17T17:55:44.979Z,17.13
2018-12-17T17:58:13.884Z,16.80
2018-12-17T18:00:42.839Z,23.33
2018-12-17T18:03:11.744Z,18.07
2018-12-17T18:05:40.631Z,17.97
2018-12-17T18:08:09.596Z,18.55
2018-12-17T18:10:38.506Z,19.13
2018-12-17T18:13:07.455Z,19.87
2018-12-17T18:15:36.701Z,18.73
2018-12-17T18:18:05.626Z,18.07
2018-12-17T18:20:34.800Z,19.37
2018-12-17T18:23:03.718Z,16.30
2018-12-17T18:25:32.673Z,27.30
2018-12-17T18:28:01.576Z,22.87
2018-12-17T18:30:30.494Z,21.10
2018-12-17T18:32:59.368Z,23.00
2018-12-17T18:35:28.331Z,23.33
2018-12-17T18:37:57.246Z,27.73
2018-12-17T18:40:26.166Z,25.67
2018-12-17T18:42:55.072Z,24.77
2018-12-17T18:45:23.957Z,23.13
2018-12-17T18:47:52.858Z,27.13
2018-12-17T18:50:21.775Z,27.40
2018-12-17T18:52:50.662Z,32.23
2018-12-17T18:55:19.568Z,30.70
2018-12-17T18:57:48.460Z,32.45
2018-12-17T19:00:17.345Z,31.73
2018-12-17T19:02:46.258Z,34.23
2018-12-17T19:05:15.137Z,33.57
2018-12-17T19:07:44.050Z,32.47
2018-12-17T19:10:12.963Z,38.08
2018-12-17T19:12:41.872Z,33.80
2018-12-17T19:15:10.726Z,31.50
2018-12-17T19:17:39.622Z,35.33
2018-12-17T19:20:08.622Z,33.93
2018-12-17T19:22:37.618Z,33.30
2018-12-17T19:25:07.184Z,33.40
2018-12-17T19:27:36.072Z,36.30
2018-12-17T19:30:05.347Z,33.50
2018-12-17T19:32:40.106Z,39.47
2018-12-17T19:35:03.167Z,34.73
2018-12-17T19:37:32.065Z,36.63
2018-12-17T19:40:00.990Z,32.83
2018-12-17T19:42:29.881Z,36.87
2018-12-17T19:44:58.802Z,39.17
2018-12-17T19:47:27.703Z,44.90
2018-12-17T19:49:56.618Z,36.53
2018-12-17T19:52:25.557Z,36.60
2018-12-17T19:54:54.448Z,34.97
2018-12-17T19:57:23.339Z,37.20
2018-12-17T19:59:52.259Z,38.33
2018-12-17T20:02:21.184Z,44.50
2018-12-17T20:04:50.084Z,35.17
2018-12-17T20:07:18.989Z,38.53
2018-12-17T20:09:47.916Z,45.83
2018-12-17T20:12:16.847Z,41.63
2018-12-17T20:14:45.734Z,43.90
2018-12-17T20:17:14.679Z,39.83
2018-12-17T20:19:43.582Z,37.73
2018-12-17T20:22:12.510Z,36.90
2018-12-17T20:24:41.501Z,34.93
2018-12-17T20:27:10.471Z,34.33
2018-12-17T20:29:39.435Z,37.80
2018-12-17T20:32:08.390Z,38.37
2018-12-17T20:34:37.279Z,36.63
2018-12-17T20:37:06.243Z,43.43
2018-12-17T20:39:35.125Z,38.57
2018-12-17T20:42:04.050Z,38.13
2018-12-17T20:44:32.942Z,38.40
2018-12-17T20:47:01.829Z,42.70
2018-12-17T20:49:30.744Z,38.30
2018-12-17T20:51:59.602Z,50.90
2018-12-17T20:54:28.507Z,45.83
2018-12-17T20:56:57.414Z,42.30
2018-12-17T20:59:26.315Z,45.63
2018-12-17T21:01:55.194Z,50.47
2018-12-17T21:04:24.119Z,42.53
2018-12-17T21:06:53.009Z,40.27
2018-12-17T21:09:21.923Z,44.57
2018-12-17T21:11:50.815Z,44.53
2018-12-17T21:14:23.739Z,44.70
2018-12-17T21:16:48.623Z,48.77
2018-12-17T21:19:17.534Z,47.73
2018-12-17T21:21:46.542Z,42.43
2018-12-17T21:24:15.419Z,60.40
2018-12-17T21:26:44.323Z,50.00
2018-12-17T21:29:13.275Z,53.97
2018-12-17T21:31:42.335Z,58.13
2018-12-17T21:34:11.200Z,56.37
2018-12-17T21:36:40.115Z,54.83
2018-12-17T21:39:09.065Z,53.80
2018-12-17T21:41:37.976Z,57.97
2018-12-17T21:44:06.940Z,67.77
2018-12-17T21:46:35.854Z,63.37
2018-12-17T21:49:04.765Z,72.47
2018-12-17T21:51:33.694Z,63.67
2018-12-17T21:54:02.623Z,54.93
2018-12-17T21:56:31.598Z,64.17
2018-12-17T21:59:00.486Z,59.13
2018-12-17T22:01:29.379Z,59.57
2018-12-17T22:03:58.273Z,64.60
2018-12-17T22:06:27.173Z,66.67
2018-12-17T22:08:56.104Z,60.50
2018-12-17T22:11:24.998Z,67.10
2018-12-17T22:13:53.917Z,65.63
2018-12-17T22:16:22.828Z,63.60
2018-12-17T22:18:51.753Z,78.35
2018-12-17T22:21:20.638Z,67.10
2018-12-17T22:23:49.560Z,66.70
2018-12-17T22:26:18.488Z,65.90
2018-12-17T22:28:47.404Z,61.47
2018-12-17T22:31:16.274Z,80.47
2018-12-17T22:33:45.183Z,81.82
2018-12-17T22:36:14.076Z,57.57
2018-12-17T22:38:42.964Z,65.80
2018-12-17T22:41:11.866Z,61.43
2018-12-17T22:43:40.746Z,63.13
2018-12-17T22:46:09.707Z,56.90
2018-12-17T22:48:38.605Z,66.90
2018-12-17T22:51:07.568Z,66.27
2018-12-17T22:53:36.453Z,67.57
2018-12-17T22:56:05.391Z,65.73
2018-12-17T22:58:34.309Z,69.20
2018-12-17T23:01:03.235Z,69.63
2018-12-17T23:03:32.112Z,63.37
2018-12-17T23:06:01.034Z,68.10
2018-12-17T23:08:29.928Z,63.67
2018-12-17T23:11:54.703Z,72.67
2018-12-17T23:15:00.093Z,67.97
2018-12-17T23:17:42.992Z,65.43
2018-12-17T23:20:11.854Z,69.80
2018-12-17T23:22:41.218Z,68.67
2018-12-17T23:25:10.150Z,60.43
2018-12-17T23:27:39.032Z,62.67
2018-12-17T23:30:08.984Z,68.03
2018-12-17T23:32:37.869Z,61.43
2018-12-17T23:35:07.836Z,77.27
2018-12-17T23:37:36.721Z,57.47
2018-12-17T23:40:05.738Z,58.23
2018-12-17T23:42:34.635Z,64.20
2018-12-17T23:45:03.544Z,58.07
2018-12-17T23:47:32.435Z,68.20
2018-12-17T23:50:01.350Z,56.93
2018-12-17T23:52:30.420Z,60.37
2018-12-17T23:54:59.255Z,70.22
2018-12-17T23:57:28.131Z,56.30
2018-12-17T23:59:57.034Z,51.33
